createdAt,value
2022-11-28T00:02:26.098Z,10.45
2022-11-28T00:04:58.367Z,10.68
2022-11-28T00:07:30.480Z,9.90
2022-11-28T00:10:02.672Z,10.05
2022-11-28T00:12:35.903Z,10.02
2022-11-28T00:15:08.470Z,11.38
2022-11-28T00:17:41.633Z,9.75
2022-11-28T00:20:13.871Z,10.10
2022-11-28T00:22:45.906Z,10.07
2022-11-28T00:25:18.354Z,10.73
2022-11-28T00:27:50.385Z,9.43
2022-11-28T00:30:22.448Z,9.65
2022-11-28T00:32:54.368Z,9.15
2022-11-28T00:35:26.287Z,9.50
2022-11-28T00:37:58.238Z,10.75
2022-11-28T00:40:30.226Z,9.70
2022-11-28T00:43:02.153Z,9.80
2022-11-28T00:45:34.176Z,10.88
2022-11-28T00:48:06.413Z,9.77
2022-11-28T00:50:38.430Z,9.43
2022-11-28T00:53:10.479Z,10.10
2022-11-28T00:55:42.547Z,9.30
2022-11-28T00:58:14.646Z,10.18
2022-11-28T01:00:46.710Z,10.15
2022-11-28T01:03:18.761Z,9.77
2022-11-28T01:05:51.118Z,10.05
2022-11-28T01:08:23.029Z,9.40
2022-11-28T01:10:55.008Z,9.48
2022-11-28T01:13:27.242Z,8.93
2022-11-28T01:15:59.539Z,9.32
2022-11-28T01:18:32.227Z,9.48
2022-11-28T01:21:05.850Z,9.77
2022-11-28T01:23:38.040Z,9.65
2022-11-28T01:26:15.098Z,9.90
2022-11-28T01:28:50.458Z,9.73
2022-11-28T01:31:26.469Z,8.70
2022-11-28T01:34:00.206Z,9.75
2022-11-28T01:36:32.211Z,8.95
2022-11-28T01:39:04.625Z,10.35
2022-11-28T01:41:37.052Z,9.50
2022-11-28T01:44:13.550Z,9.57
2022-11-28T01:47:05.300Z,9.27
2022-11-28T01:49:37.946Z,8.82
2022-11-28T01:52:13.223Z,8.75
2022-11-28T01:54:53.381Z,9.27
2022-11-28T01:57:29.481Z,8.13
2022-11-28T02:00:17.635Z,8.90
2022-11-28T02:03:12.533Z,8.93
2022-11-28T02:05:51.360Z,9.05
2022-11-28T02:08:25.435Z,9.90
2022-11-28T02:11:25.368Z,10.32
2022-11-28T02:14:47.398Z,9.65
2022-11-28T02:18:00.990Z,10.20
2022-11-28T02:21:23.019Z,10.27
2022-11-28T02:24:20.406Z,9.77
2022-11-28T02:27:34.000Z,9.63
2022-11-28T02:30:51.456Z,9.98
2022-11-28T02:34:03.374Z,8.23
2022-11-28T02:36:58.793Z,9.35
2022-11-28T02:39:49.765Z,9.90
2022-11-28T02:42:55.641Z,9.18
2022-11-28T02:45:59.447Z,9.70
2022-11-28T02:48:55.340Z,8.82
2022-11-28T02:52:03.114Z,9.82
2022-11-28T02:54:42.366Z,10.90
2022-11-28T02:57:15.094Z,9.45
2022-11-28T02:59:51.890Z,9.75
2022-11-28T03:02:32.282Z,9.50
2022-11-28T03:05:46.080Z,8.73
2022-11-28T03:08:51.780Z,9.50
2022-11-28T03:11:42.485Z,8.68
2022-11-28T03:14:40.320Z,8.50
2022-11-28T03:17:46.403Z,8.88
2022-11-28T03:20:52.241Z,9.13
2022-11-28T03:23:43.917Z,7.97
2022-11-28T03:26:25.875Z,8.27
2022-11-28T03:29:15.446Z,8.80
2022-11-28T03:32:00.676Z,8.27
2022-11-28T03:34:44.623Z,7.95
2022-11-28T03:37:35.558Z,8.60
2022-11-28T03:40:16.000Z,8.13
2022-11-28T03:43:03.136Z,8.40
2022-11-28T03:45:45.194Z,7.82
2022-11-28T03:48:29.034Z,7.95
2022-11-28T03:51:10.087Z,7.90
2022-11-28T03:53:50.838Z,8.35
2022-11-28T03:56:54.595Z,8.27
2022-11-28T03:59:52.798Z,7.78
2022-11-28T04:02:36.214Z,8.85
2022-11-28T04:05:24.979Z,8.48
2022-11-28T04:08:27.087Z,8.68
2022-11-28T04:11:10.523Z,8.25
2022-11-28T04:14:10.242Z,9.20
2022-11-28T04:16:59.740Z,8.15
2022-11-28T04:19:50.974Z,8.80
2022-11-28T04:22:37.458Z,8.75
2022-11-28T04:25:19.425Z,9.70
2022-11-28T04:27:59.618Z,7.65
2022-11-28T04:30:39.042Z,8.55
2022-11-28T04:33:14.440Z,9.20
2022-11-28T04:35:51.780Z,8.30
2022-11-28T04:38:28.194Z,7.65
2022-11-28T04:41:07.132Z,8.15
2022-11-28T04:44:35.528Z,7.93
2022-11-28T04:47:12.619Z,8.13
2022-11-28T04:49:45.356Z,8.57
2022-11-28T04:52:23.871Z,9.25
2022-11-28T04:55:23.710Z,8.25
2022-11-28T04:58:21.524Z,8.35
2022-11-28T05:01:01.822Z,8.55
2022-11-28T05:03:42.284Z,8.45
2022-11-28T05:06:25.952Z,7.40
2022-11-28T05:09:03.749Z,8.55
2022-11-28T05:11:35.916Z,9.18
2022-11-28T05:14:08.052Z,10.70
2022-11-28T05:16:40.096Z,9.98
2022-11-28T05:19:12.182Z,9.52
2022-11-28T05:21:44.911Z,9.35
2022-11-28T05:24:18.001Z,8.73
2022-11-28T05:26:50.271Z,9.23
2022-11-28T05:29:22.488Z,10.45
2022-11-28T05:31:56.293Z,9.18
2022-11-28T05:34:31.041Z,9.07
2022-11-28T05:37:03.343Z,9.30
2022-11-28T05:39:35.582Z,8.80
2022-11-28T05:42:07.457Z,9.82
2022-11-28T05:44:39.569Z,9.45
2022-11-28T05:47:11.610Z,7.85
2022-11-28T05:49:44.242Z,8.65
2022-11-28T05:52:17.452Z,10.00
2022-11-28T05:54:49.481Z,9.55
2022-11-28T05:57:21.429Z,8.40
2022-11-28T05:59:53.439Z,9.48
2022-11-28T06:02:26.415Z,9.05
2022-11-28T06:04:59.933Z,8.35
2022-11-28T06:07:36.861Z,8.55
2022-11-28T06:10:09.363Z,8.23
2022-11-28T06:12:41.674Z,9.13
2022-11-28T06:15:13.706Z,8.60
2022-11-28T06:17:45.651Z,8.15
2022-11-28T06:20:17.812Z,8.25
2022-11-28T06:22:49.937Z,8.38
2022-11-28T06:25:22.020Z,8.70
2022-11-28T06:27:53.968Z,8.13
2022-11-28T06:30:26.223Z,8.95
2022-11-28T06:32:58.162Z,7.97
2022-11-28T06:35:30.122Z,8.02
2022-11-28T06:38:02.072Z,8.65
2022-11-28T06:40:34.008Z,8.20
2022-11-28T06:43:09.173Z,8.20
2022-11-28T06:45:41.256Z,9.18
2022-11-28T06:48:13.326Z,8.95
2022-11-28T06:50:45.500Z,10.13
2022-11-28T06:53:17.852Z,9.20
2022-11-28T06:55:50.137Z,9.27
2022-11-28T06:58:22.116Z,9.73
2022-11-28T07:00:54.229Z,10.70
2022-11-28T07:03:26.262Z,9.57
2022-11-28T07:06:04.193Z,10.43
2022-11-28T07:08:37.623Z,10.70
2022-11-28T07:11:16.033Z,10.93
2022-11-28T07:13:51.596Z,10.05
2022-11-28T07:16:27.086Z,10.65
2022-11-28T07:19:02.147Z,11.52
2022-11-28T07:21:34.598Z,10.00
2022-11-28T07:24:07.266Z,10.70
2022-11-28T07:26:39.339Z,10.15
2022-11-28T07:29:15.802Z,9.82
2022-11-28T07:31:48.862Z,10.63
2022-11-28T07:34:21.421Z,9.20
2022-11-28T07:36:53.465Z,9.75
2022-11-28T07:39:25.863Z,9.35
2022-11-28T07:41:57.961Z,10.80
2022-11-28T07:44:29.924Z,10.43
2022-11-28T07:47:02.244Z,10.23
2022-11-28T07:49:34.669Z,10.15
2022-11-28T07:52:06.849Z,10.90
2022-11-28T07:54:38.864Z,10.50
2022-11-28T07:57:13.189Z,10.52
2022-11-28T07:59:45.930Z,9.90
2022-11-28T08:02:19.274Z,10.35
2022-11-28T08:04:55.069Z,9.90
2022-11-28T08:07:27.711Z,9.77
2022-11-28T08:10:00.009Z,10.20
2022-11-28T08:12:32.185Z,10.10
2022-11-28T08:15:04.501Z,10.65
2022-11-28T08:17:36.757Z,11.13
2022-11-28T08:20:09.461Z,10.30
2022-11-28T08:22:42.140Z,9.95
2022-11-28T08:25:14.106Z,9.85
2022-11-28T08:27:46.161Z,10.15
2022-11-28T08:30:18.323Z,10.55
2022-11-28T08:32:51.217Z,11.70
2022-11-28T08:35:23.616Z,10.77
2022-11-28T08:38:01.440Z,10.48
2022-11-28T08:40:34.019Z,10.85
2022-11-28T08:43:07.479Z,11.18
2022-11-28T08:45:39.615Z,11.25
2022-11-28T08:48:11.654Z,10.82
2022-11-28T08:50:48.331Z,11.45
2022-11-28T08:53:20.729Z,12.07
2022-11-28T08:55:54.740Z,12.10
2022-11-28T08:58:27.395Z,12.25
2022-11-28T09:00:59.990Z,12.85
2022-11-28T09:03:32.570Z,12.80
2022-11-28T09:06:04.884Z,13.52
2022-11-28T09:08:37.055Z,12.82
2022-11-28T09:11:10.132Z,13.13
2022-11-28T09:13:45.220Z,11.90
2022-11-28T09:16:18.471Z,11.77
2022-11-28T09:18:51.304Z,13.15
2022-11-28T09:21:25.120Z,12.90
2022-11-28T09:23:57.200Z,12.70
2022-11-28T09:26:30.196Z,11.80
2022-11-28T09:29:04.300Z,12.10
2022-11-28T09:31:36.546Z,13.20
2022-11-28T09:34:09.224Z,12.65
2022-11-28T09:36:42.072Z,11.43
2022-11-28T09:39:14.618Z,10.88
2022-11-28T09:41:49.874Z,12.02
2022-11-28T09:44:46.022Z,10.73
2022-11-28T09:47:28.399Z,10.57
2022-11-28T09:50:15.388Z,11.07
2022-11-28T09:53:14.758Z,11.35
2022-11-28T09:56:09.426Z,10.65
2022-11-28T09:58:58.913Z,10.20
2022-11-28T10:02:02.888Z,10.98
2022-11-28T10:05:24.709Z,10.52
2022-11-28T10:08:16.362Z,11.75
2022-11-28T10:11:19.543Z,10.15
2022-11-28T10:14:24.899Z,10.70
2022-11-28T10:17:36.426Z,11.52
2022-11-28T10:20:36.607Z,10.07
2022-11-28T10:23:30.470Z,10.20
2022-11-28T10:26:31.206Z,11.02
2022-11-28T10:30:06.786Z,11.38
2022-11-28T10:33:10.274Z,10.80
2022-11-28T10:36:03.238Z,10.48
2022-11-28T10:38:36.992Z,11.07
2022-11-28T10:41:25.102Z,10.63
2022-11-28T10:44:22.638Z,9.32
2022-11-28T10:47:13.271Z,9.90
2022-11-28T10:50:16.252Z,9.45
2022-11-28T10:53:18.093Z,8.70
2022-11-28T10:56:34.394Z,10.27
2022-11-28T10:59:36.145Z,8.90
2022-11-28T11:02:45.470Z,9.13
2022-11-28T11:05:33.746Z,9.90
2022-11-28T11:08:28.312Z,8.40
2022-11-28T11:11:29.056Z,9.20
2022-11-28T11:14:12.261Z,9.30
2022-11-28T11:16:54.772Z,9.20
2022-11-28T11:19:38.840Z,10.13
2022-11-28T11:22:28.655Z,10.27
2022-11-28T11:25:14.546Z,10.80
2022-11-28T11:27:52.946Z,9.95
2022-11-28T11:30:38.847Z,10.50
2022-11-28T11:33:17.806Z,11.10
2022-11-28T11:35:51.207Z,8.88
2022-11-28T11:38:23.712Z,10.15
2022-11-28T11:41:31.900Z,10.00
2022-11-28T11:44:14.344Z,9.73
2022-11-28T11:47:05.785Z,9.57
2022-11-28T11:49:44.205Z,9.30
2022-11-28T11:52:23.614Z,10.15
2022-11-28T11:54:58.286Z,9.32
2022-11-28T11:57:51.338Z,10.18
2022-11-28T12:00:39.320Z,11.00
2022-11-28T12:03:46.904Z,10.35
2022-11-28T12:06:40.759Z,10.82
2022-11-28T12:09:25.652Z,11.35
2022-11-28T12:12:18.911Z,10.60
2022-11-28T12:14:56.902Z,10.98
2022-11-28T12:17:53.367Z,10.45
2022-11-28T12:21:13.282Z,10.40
2022-11-28T12:24:13.574Z,10.65
2022-11-28T12:27:15.769Z,10.23
2022-11-28T12:30:34.273Z,10.02
2022-11-28T12:33:58.984Z,11.00
2022-11-28T12:37:09.629Z,11.60
2022-11-28T12:40:04.422Z,10.45
2022-11-28T12:43:25.881Z,10.00
2022-11-28T12:46:47.923Z,11.00
2022-11-28T12:49:58.925Z,10.23
2022-11-28T12:53:19.425Z,10.25
2022-11-28T12:56:17.330Z,11.40
2022-11-28T12:59:42.708Z,10.40
2022-11-28T13:03:05.690Z,11.05
2022-11-28T13:06:00.350Z,10.73
2022-11-28T13:09:18.847Z,10.65
2022-11-28T13:12:29.575Z,12.93
2022-11-28T13:15:35.869Z,13.00
2022-11-28T13:18:50.210Z,12.55
2022-11-28T13:21:45.119Z,13.35
2022-11-28T13:25:12.047Z,12.43
2022-11-28T13:28:09.323Z,10.40
2022-11-28T13:31:07.708Z,11.80
2022-11-28T13:33:57.895Z,10.85
2022-11-28T13:40:05.864Z,10.30
2022-11-28T13:43:21.169Z,10.68
2022-11-28T13:46:11.034Z,11.52
2022-11-28T13:52:19.782Z,12.60
2022-11-28T13:55:37.373Z,12.23
2022-11-28T13:58:28.484Z,11.35
2022-11-28T14:01:21.659Z,12.55
2022-11-28T14:04:03.304Z,11.48
2022-11-28T14:06:59.564Z,11.73
2022-11-28T14:10:06.843Z,11.32
2022-11-28T14:13:17.132Z,11.80
2022-11-28T14:16:10.260Z,11.25
2022-11-28T14:19:33.435Z,11.50
2022-11-28T14:22:40.366Z,11.60
2022-11-28T14:25:39.738Z,11.30
2022-11-28T14:28:21.164Z,12.50
2022-11-28T14:31:05.619Z,12.23
2022-11-28T14:34:02.438Z,10.85
2022-11-28T14:36:42.002Z,11.07
2022-11-28T14:39:15.019Z,11.75
2022-11-28T14:42:08.668Z,11.57
2022-11-28T14:44:54.657Z,11.93
2022-11-28T14:47:34.719Z,10.80
2022-11-28T14:50:12.569Z,10.23
2022-11-28T14:53:36.156Z,12.75
2022-11-28T14:56:25.066Z,11.05
2022-11-28T14:59:02.453Z,11.70
2022-11-28T15:01:54.134Z,11.15
2022-11-28T15:04:51.138Z,10.70
2022-11-28T15:08:01.787Z,10.88
2022-11-28T15:10:54.390Z,10.30
2022-11-28T15:13:53.442Z,9.98
2022-11-28T15:16:50.415Z,9.57
2022-11-28T15:19:46.477Z,11.32
2022-11-28T15:22:41.862Z,10.23
2022-11-28T15:25:29.549Z,11.40
2022-11-28T15:28:19.376Z,10.98
2022-11-28T15:30:53.552Z,12.15
2022-11-28T15:33:29.271Z,12.35
2022-11-28T15:36:12.573Z,10.65
2022-11-28T15:38:57.989Z,12.27
2022-11-28T15:41:30.939Z,11.15
2022-11-28T15:44:04.120Z,10.20
2022-11-28T15:46:38.130Z,11.32
2022-11-28T15:49:32.562Z,10.98
2022-11-28T15:52:06.368Z,13.10
2022-11-28T15:54:51.939Z,12.43
2022-11-28T15:57:28.562Z,12.80
2022-11-28T16:00:05.492Z,12.00
2022-11-28T16:02:45.531Z,11.20
2022-11-28T16:05:21.547Z,11.00
2022-11-28T16:07:54.489Z,12.73
2022-11-28T16:10:34.474Z,13.15
2022-11-28T16:13:16.803Z,12.25
2022-11-28T16:15:56.203Z,16.02
2022-11-28T16:18:31.705Z,14.77
2022-11-28T16:21:04.878Z,14.95
2022-11-28T16:23:43.631Z,13.77
2022-11-28T16:26:30.347Z,13.75
2022-11-28T16:29:08.863Z,13.23
2022-11-28T16:31:45.648Z,14.60
2022-11-28T16:34:47.670Z,12.68
2022-11-28T16:37:25.407Z,17.23
2022-11-28T16:40:21.850Z,15.48
2022-11-28T16:42:56.971Z,15.48
2022-11-28T16:45:35.651Z,14.77
2022-11-28T16:48:19.483Z,14.38
2022-11-28T16:51:11.655Z,15.52
2022-11-28T16:54:29.365Z,14.07
2022-11-28T16:57:16.480Z,13.82
2022-11-28T16:59:53.274Z,15.07
2022-11-28T17:02:27.833Z,14.10
2022-11-28T17:05:00.873Z,15.05
2022-11-28T17:07:33.722Z,15.20
2022-11-28T17:10:07.951Z,14.77
2022-11-28T17:12:43.949Z,15.23
2022-11-28T17:15:20.263Z,14.88
2022-11-28T17:17:56.215Z,15.18
2022-11-28T17:20:30.467Z,14.38
2022-11-28T17:23:05.017Z,16.17
2022-11-28T17:25:37.890Z,15.55
2022-11-28T17:28:12.873Z,15.20
2022-11-28T17:30:52.041Z,14.80
2022-11-28T17:33:24.992Z,13.90
2022-11-28T17:35:59.046Z,14.35
2022-11-28T17:38:33.883Z,12.27
2022-11-28T17:41:12.588Z,13.52
2022-11-28T17:43:45.505Z,12.70
2022-11-28T17:46:17.953Z,13.30
2022-11-28T17:48:53.256Z,12.00
2022-11-28T17:51:26.563Z,11.95
2022-11-28T17:54:00.023Z,12.98
2022-11-28T17:56:33.960Z,13.93
2022-11-28T17:59:10.198Z,14.82
2022-11-28T18:01:44.928Z,15.52
2022-11-28T18:04:21.969Z,14.50
2022-11-28T18:06:55.038Z,15.13
2022-11-28T18:09:29.412Z,14.02
2022-11-28T18:12:02.769Z,15.15
2022-11-28T18:14:39.645Z,16.35
2022-11-28T18:17:16.226Z,16.50
2022-11-28T18:19:52.061Z,15.48
2022-11-28T18:22:29.214Z,16.23
2022-11-28T18:25:03.264Z,14.30
2022-11-28T18:27:37.133Z,15.70
2022-11-28T18:30:11.570Z,15.27
2022-11-28T18:32:49.783Z,14.73
2022-11-28T18:35:22.922Z,16.30
2022-11-28T18:37:56.229Z,16.45
2022-11-28T18:40:29.905Z,15.27
2022-11-28T18:43:04.532Z,15.63
2022-11-28T18:45:38.207Z,16.80
2022-11-28T18:48:11.365Z,18.10
2022-11-28T18:50:45.120Z,15.95
2022-11-28T18:53:20.261Z,15.38
2022-11-28T18:56:04.257Z,16.77
2022-11-28T18:58:41.206Z,16.35
2022-11-28T19:01:22.960Z,15.07
2022-11-28T19:04:09.858Z,15.05
2022-11-28T19:06:48.814Z,15.80
2022-11-28T19:09:22.999Z,16.15
2022-11-28T19:11:56.825Z,16.98
2022-11-28T19:14:36.762Z,17.60
2022-11-28T19:17:16.131Z,17.33
2022-11-28T19:19:51.070Z,18.10
2022-11-28T19:22:25.514Z,18.42
2022-11-28T19:24:59.337Z,17.17
2022-11-28T19:27:35.515Z,17.10
2022-11-28T19:30:09.403Z,16.83
2022-11-28T19:32:43.248Z,15.90
2022-11-28T19:35:19.972Z,17.17
2022-11-28T19:37:54.712Z,15.40
2022-11-28T19:40:29.376Z,16.17
2022-11-28T19:43:05.426Z,16.35
2022-11-28T19:45:42.851Z,17.45
2022-11-28T19:48:18.644Z,16.45
2022-11-28T19:50:54.476Z,16.75
2022-11-28T19:53:32.045Z,16.33
2022-11-28T19:56:09.712Z,16.27
2022-11-28T19:58:46.920Z,17.70
2022-11-28T20:01:23.371Z,17.25
2022-11-28T20:03:59.876Z,16.58
2022-11-28T20:06:36.600Z,16.30
2022-11-28T20:09:12.586Z,19.67
2022-11-28T20:11:46.511Z,18.60
2022-11-28T20:14:21.179Z,17.58
2022-11-28T20:16:54.730Z,17.90
2022-11-28T20:19:29.331Z,18.00
2022-11-28T20:22:03.511Z,20.50
2022-11-28T20:24:37.197Z,23.45
2022-11-28T20:27:10.956Z,22.40
2022-11-28T20:29:45.175Z,20.60
2022-11-28T20:32:19.296Z,16.20
2022-11-28T20:34:52.880Z,15.20
2022-11-28T20:37:29.334Z,17.20
2022-11-28T20:40:03.371Z,16.95
2022-11-28T20:42:40.106Z,17.02
2022-11-28T20:45:13.910Z,15.75
2022-11-28T20:47:49.949Z,13.35
2022-11-28T20:50:23.865Z,14.85
2022-11-28T20:52:59.786Z,14.55
2022-11-28T20:55:37.094Z,14.65
2022-11-28T20:58:10.657Z,15.20
2022-11-28T21:00:46.564Z,14.88
2022-11-28T21:03:24.533Z,14.68
2022-11-28T21:06:01.280Z,13.55
2022-11-28T21:08:35.155Z,14.38
2022-11-28T21:11:30.558Z,14.18
2022-11-28T21:14:08.502Z,13.48
2022-11-28T21:16:42.632Z,14.38
2022-11-28T21:19:16.190Z,13.00
2022-11-28T21:21:49.368Z,13.55
2022-11-28T21:24:22.755Z,14.00
2022-11-28T21:26:55.326Z,13.90
2022-11-28T21:29:27.984Z,15.25
2022-11-28T21:32:00.281Z,14.25
2022-11-28T21:34:34.114Z,15.73
2022-11-28T21:37:06.562Z,17.33
2022-11-28T21:39:39.249Z,28.52
2022-11-28T21:42:14.925Z,20.30
2022-11-28T21:44:50.904Z,20.75
2022-11-28T21:47:23.286Z,23.08
2022-11-28T21:49:55.456Z,23.25
2022-11-28T21:52:29.097Z,23.02
2022-11-28T21:55:02.383Z,23.52
2022-11-28T21:57:34.749Z,22.30
2022-11-28T22:00:16.602Z,20.70
2022-11-28T22:03:04.016Z,19.35
2022-11-28T22:05:38.127Z,17.50
2022-11-28T22:08:10.957Z,16.67
2022-11-28T22:10:42.983Z,16.90
2022-11-28T22:13:15.019Z,17.13
2022-11-28T22:15:47.294Z,17.13
2022-11-28T22:18:19.962Z,18.15
2022-11-28T22:21:00.489Z,18.48
2022-11-28T22:23:37.408Z,18.35
2022-11-28T22:26:11.163Z,16.75
2022-11-28T22:28:47.876Z,16.58
2022-11-28T22:31:25.784Z,17.77
2022-11-28T22:33:58.575Z,16.30
2022-11-28T22:36:32.435Z,17.67
2022-11-28T22:39:06.774Z,16.77
2022-11-28T22:41:40.955Z,17.77
2022-11-28T22:44:13.437Z,15.98
2022-11-28T22:46:45.542Z,16.65
2022-11-28T22:49:17.846Z,16.00
2022-11-28T22:51:49.960Z,15.48
2022-11-28T22:54:22.437Z,16.17
2022-11-28T22:56:55.371Z,16.77
2022-11-28T22:59:27.798Z,15.43
2022-11-28T23:02:02.756Z,15.93
2022-11-28T23:04:35.475Z,14.70
2022-11-28T23:07:08.647Z,16.73
2022-11-28T23:09:40.691Z,15.68
2022-11-28T23:12:12.895Z,17.38
2022-11-28T23:14:45.191Z,14.77
2022-11-28T23:17:19.970Z,15.82
2022-11-28T23:19:52.082Z,16.27
2022-11-28T23:22:24.641Z,17.85
2022-11-28T23:24:56.938Z,17.00
2022-11-28T23:27:29.361Z,17.45
2022-11-28T23:30:02.503Z,16.77
2022-11-28T23:32:35.293Z,17.67
2022-11-28T23:35:07.716Z,16.80
2022-11-28T23:37:40.070Z,16.98
2022-11-28T23:40:12.380Z,17.00
2022-11-28T23:42:44.630Z,14.95
2022-11-28T23:45:16.846Z,14.35
2022-11-28T23:47:48.810Z,15.38
2022-11-28T23:50:20.772Z,14.85
2022-11-28T23:52:52.724Z,15.00
2022-11-28T23:55:25.051Z,14.25
2022-11-28T23:57:57.195Z,15.35
